sensor_id;sensor_type;location;lat;lon;timestamp;P1;durP1;ratioP1;P2;durP2;ratioP2
53367;SDS011;39271;45.618;20.024;2022-11-12T00:13:43;4.68;;;3.35;;
53367;SDS011;39271;45.618;20.024;2022-11-12T00:16:32;4.28;;;2.20;;
53367;SDS011;39271;45.618;20.024;2022-11-12T00:19:40;3.50;;;1.88;;
53367;SDS011;39271;45.618;20.024;2022-11-12T00:22:18;5.10;;;3.00;;
53367;SDS011;39271;45.618;20.024;2022-11-12T00:24:59;5.85;;;2.42;;
53367;SDS011;39271;45.618;20.024;2022-11-12T00:28:31;3.08;;;2.42;;
53367;SDS011;39271;45.618;20.024;2022-11-12T00:31:19;5.15;;;2.97;;
53367;SDS011;39271;45.618;20.024;2022-11-12T00:33:58;1.92;;;1.50;;
53367;SDS011;39271;45.618;20.024;2022-11-12T00:39:41;2.75;;;1.95;;
53367;SDS011;39271;45.618;20.024;2022-11-12T00:45:30;3.22;;;2.33;;
53367;SDS011;39271;45.618;20.024;2022-11-12T00:48:05;9.60;;;3.50;;
53367;SDS011;39271;45.618;20.024;2022-11-12T00:50:58;1.58;;;1.33;;
53367;SDS011;39271;45.618;20.024;2022-11-12T00:56:33;6.30;;;2.97;;
53367;SDS011;39271;45.618;20.024;2022-11-12T00:59:09;3.30;;;2.45;;
53367;SDS011;39271;45.618;20.024;2022-11-12T01:23:20;3.60;;;2.40;;
53367;SDS011;39271;45.618;20.024;2022-11-12T01:31:30;10.35;;;3.45;;
53367;SDS011;39271;45.618;20.024;2022-11-12T01:42:54;3.28;;;2.08;;
53367;SDS011;39271;45.618;20.024;2022-11-12T01:45:26;6.90;;;2.85;;
53367;SDS011;39271;45.618;20.024;2022-11-12T01:51:57;4.05;;;1.95;;
53367;SDS011;39271;45.618;20.024;2022-11-12T01:57:19;1.83;;;1.23;;
53367;SDS011;39271;45.618;20.024;2022-11-12T02:00:07;4.25;;;2.08;;
53367;SDS011;39271;45.618;20.024;2022-11-12T02:02:46;7.75;;;2.60;;
53367;SDS011;39271;45.618;20.024;2022-11-12T02:05:35;9.88;;;2.92;;
53367;SDS011;39271;45.618;20.024;2022-11-12T02:08:18;1.55;;;1.45;;
53367;SDS011;39271;45.618;20.024;2022-11-12T02:10:57;4.72;;;2.85;;
53367;SDS011;39271;45.618;20.024;2022-11-12T02:13:26;7.55;;;2.28;;
53367;SDS011;39271;45.618;20.024;2022-11-12T02:16:17;3.30;;;2.10;;
53367;SDS011;39271;45.618;20.024;2022-11-12T02:22:32;6.55;;;3.10;;
53367;SDS011;39271;45.618;20.024;2022-11-12T02:28:41;3.33;;;2.35;;
53367;SDS011;39271;45.618;20.024;2022-11-12T02:36:53;3.08;;;2.25;;
53367;SDS011;39271;45.618;20.024;2022-11-12T02:52:42;2.47;;;1.75;;
53367;SDS011;39271;45.618;20.024;2022-11-12T03:10:50;2.95;;;2.30;;
53367;SDS011;39271;45.618;20.024;2022-11-12T03:26:46;1.65;;;1.35;;
53367;SDS011;39271;45.618;20.024;2022-11-12T03:29:46;2.83;;;1.42;;
53367;SDS011;39271;45.618;20.024;2022-11-12T03:32:27;2.47;;;2.28;;
53367;SDS011;39271;45.618;20.024;2022-11-12T03:35:13;1.98;;;1.48;;
53367;SDS011;39271;45.618;20.024;2022-11-12T03:59:31;2.33;;;1.92;;
53367;SDS011;39271;45.618;20.024;2022-11-12T04:08:38;4.13;;;1.85;;
53367;SDS011;39271;45.618;20.024;2022-11-12T04:29:32;6.00;;;2.55;;
53367;SDS011;39271;45.618;20.024;2022-11-12T04:38:26;3.33;;;2.38;;
53367;SDS011;39271;45.618;20.024;2022-11-12T04:47:23;5.20;;;1.98;;
53367;SDS011;39271;45.618;20.024;2022-11-12T04:53:13;2.15;;;1.30;;
53367;SDS011;39271;45.618;20.024;2022-11-12T05:02:15;2.70;;;1.80;;
53367;SDS011;39271;45.618;20.024;2022-11-12T05:08:21;6.63;;;2.30;;
53367;SDS011;39271;45.618;20.024;2022-11-12T05:26:57;3.17;;;2.00;;
53367;SDS011;39271;45.618;20.024;2022-11-12T05:33:17;2.38;;;1.75;;
53367;SDS011;39271;45.618;20.024;2022-11-12T05:36:12;3.58;;;1.20;;
53367;SDS011;39271;45.618;20.024;2022-11-12T05:42:05;1.85;;;1.33;;
53367;SDS011;39271;45.618;20.024;2022-11-12T06:22:14;5.55;;;2.47;;
53367;SDS011;39271;45.618;20.024;2022-11-12T06:24:49;11.18;;;3.47;;
53367;SDS011;39271;45.618;20.024;2022-11-12T06:27:30;4.82;;;2.42;;
53367;SDS011;39271;45.618;20.024;2022-11-12T06:30:27;3.05;;;2.15;;
53367;SDS011;39271;45.618;20.024;2022-11-12T06:33:06;3.60;;;2.10;;
53367;SDS011;39271;45.618;20.024;2022-11-12T06:41:54;5.50;;;3.05;;
53367;SDS011;39271;45.618;20.024;2022-11-12T06:47:40;7.90;;;2.78;;
53367;SDS011;39271;45.618;20.024;2022-11-12T07:07:33;3.58;;;2.83;;
53367;SDS011;39271;45.618;20.024;2022-11-12T07:10:20;4.20;;;2.42;;
53367;SDS011;39271;45.618;20.024;2022-11-12T07:13:04;3.67;;;2.35;;
53367;SDS011;39271;45.618;20.024;2022-11-12T07:15:43;5.93;;;3.10;;
53367;SDS011;39271;45.618;20.024;2022-11-12T07:18:19;5.97;;;3.65;;
53367;SDS011;39271;45.618;20.024;2022-11-12T07:20:47;4.72;;;3.08;;
53367;SDS011;39271;45.618;20.024;2022-11-12T07:23:22;3.35;;;2.45;;
53367;SDS011;39271;45.618;20.024;2022-11-12T07:28:59;7.20;;;3.28;;
53367;SDS011;39271;45.618;20.024;2022-11-12T07:31:31;6.03;;;3.28;;
53367;SDS011;39271;45.618;20.024;2022-11-12T07:37:07;3.28;;;1.65;;
53367;SDS011;39271;45.618;20.024;2022-11-12T07:39:51;4.03;;;2.38;;
53367;SDS011;39271;45.618;20.024;2022-11-12T07:42:17;4.20;;;2.85;;
53367;SDS011;39271;45.618;20.024;2022-11-12T07:44:43;4.20;;;2.78;;
53367;SDS011;39271;45.618;20.024;2022-11-12T07:47:16;2.67;;;1.73;;
53367;SDS011;39271;45.618;20.024;2022-11-12T07:49:51;2.95;;;1.23;;
53367;SDS011;39271;45.618;20.024;2022-11-12T07:52:23;3.85;;;2.05;;
53367;SDS011;39271;45.618;20.024;2022-11-12T07:55:01;2.28;;;1.70;;
53367;SDS011;39271;45.618;20.024;2022-11-12T07:57:33;3.00;;;1.98;;
53367;SDS011;39271;45.618;20.024;2022-11-12T08:00:02;3.35;;;1.73;;
53367;SDS011;39271;45.618;20.024;2022-11-12T08:02:30;2.53;;;1.50;;
53367;SDS011;39271;45.618;20.024;2022-11-12T08:05:03;2.75;;;1.60;;
53367;SDS011;39271;45.618;20.024;2022-11-12T08:07:30;5.80;;;3.05;;
53367;SDS011;39271;45.618;20.024;2022-11-12T08:10:11;3.08;;;2.03;;
53367;SDS011;39271;45.618;20.024;2022-11-12T08:12:43;3.53;;;1.73;;
53367;SDS011;39271;45.618;20.024;2022-11-12T08:15:15;3.40;;;1.98;;
53367;SDS011;39271;45.618;20.024;2022-11-12T08:17:47;3.33;;;2.00;;
53367;SDS011;39271;45.618;20.024;2022-11-12T08:20:17;3.55;;;2.10;;
53367;SDS011;39271;45.618;20.024;2022-11-12T08:22:46;2.97;;;2.40;;
53367;SDS011;39271;45.618;20.024;2022-11-12T08:25:21;5.05;;;2.50;;
53367;SDS011;39271;45.618;20.024;2022-11-12T08:27:48;4.53;;;2.03;;
53367;SDS011;39271;45.618;20.024;2022-11-12T08:30:29;2.25;;;1.65;;
53367;SDS011;39271;45.618;20.024;2022-11-12T08:32:56;5.07;;;2.63;;
53367;SDS011;39271;45.618;20.024;2022-11-12T08:35:31;4.30;;;2.03;;
53367;SDS011;39271;45.618;20.024;2022-11-12T08:38:02;3.63;;;2.25;;
53367;SDS011;39271;45.618;20.024;2022-11-12T08:40:29;2.25;;;1.48;;
53367;SDS011;39271;45.618;20.024;2022-11-12T08:42:56;2.92;;;1.60;;
53367;SDS011;39271;45.618;20.024;2022-11-12T08:45:23;2.90;;;2.10;;
53367;SDS011;39271;45.618;20.024;2022-11-12T08:47:49;4.88;;;2.17;;
53367;SDS011;39271;45.618;20.024;2022-11-12T08:50:15;1.90;;;1.25;;
53367;SDS011;39271;45.618;20.024;2022-11-12T08:52:44;3.10;;;1.52;;
53367;SDS011;39271;45.618;20.024;2022-11-12T08:55:10;2.85;;;1.67;;
53367;SDS011;39271;45.618;20.024;2022-11-12T08:57:40;4.22;;;3.25;;
53367;SDS011;39271;45.618;20.024;2022-11-12T09:00:10;5.32;;;2.08;;
53367;SDS011;39271;45.618;20.024;2022-11-12T09:02:45;3.38;;;1.83;;
53367;SDS011;39271;45.618;20.024;2022-11-12T09:05:11;3.03;;;1.75;;
53367;SDS011;39271;45.618;20.024;2022-11-12T09:10:04;2.50;;;1.63;;
53367;SDS011;39271;45.618;20.024;2022-11-12T09:12:44;2.90;;;1.70;;
53367;SDS011;39271;45.618;20.024;2022-11-12T09:15:21;4.30;;;1.48;;
53367;SDS011;39271;45.618;20.024;2022-11-12T09:17:50;1.60;;;1.23;;
53367;SDS011;39271;45.618;20.024;2022-11-12T09:20:19;3.58;;;1.85;;
53367;SDS011;39271;45.618;20.024;2022-11-12T09:25:11;1.85;;;1.55;;
53367;SDS011;39271;45.618;20.024;2022-11-12T09:27:43;1.88;;;1.23;;
53367;SDS011;39271;45.618;20.024;2022-11-12T16:56:56;6.85;;;4.38;;
53367;SDS011;39271;45.618;20.024;2022-11-12T17:07:03;21.88;;;6.30;;
53367;SDS011;39271;45.618;20.024;2022-11-12T17:19:23;14.45;;;5.00;;
53367;SDS011;39271;45.618;20.024;2022-11-12T17:25:34;13.18;;;4.85;;
53367;SDS011;39271;45.618;20.024;2022-11-12T18:48:13;3.92;;;3.10;;
53367;SDS011;39271;45.618;20.024;2022-11-12T19:34:53;12.13;;;5.30;;
53367;SDS011;39271;45.618;20.024;2022-11-12T20:10:59;10.57;;;6.40;;
53367;SDS011;39271;45.618;20.024;2022-11-12T20:13:25;9.38;;;5.10;;
53367;SDS011;39271;45.618;20.024;2022-11-12T20:18:17;13.02;;;4.65;;
53367;SDS011;39271;45.618;20.024;2022-11-12T20:23:19;12.60;;;6.75;;
53367;SDS011;39271;45.618;20.024;2022-11-12T20:25:47;8.25;;;5.45;;
53367;SDS011;39271;45.618;20.024;2022-11-12T20:28:14;13.32;;;5.60;;
53367;SDS011;39271;45.618;20.024;2022-11-12T20:30:40;10.88;;;4.68;;
53367;SDS011;39271;45.618;20.024;2022-11-12T20:33:06;15.40;;;6.32;;
53367;SDS011;39271;45.618;20.024;2022-11-12T20:35:33;9.20;;;4.88;;
53367;SDS011;39271;45.618;20.024;2022-11-12T20:38:00;11.60;;;5.22;;
53367;SDS011;39271;45.618;20.024;2022-11-12T20:40:26;11.75;;;5.53;;
53367;SDS011;39271;45.618;20.024;2022-11-12T20:42:52;6.88;;;4.68;;
53367;SDS011;39271;45.618;20.024;2022-11-12T20:45:18;13.38;;;5.85;;
53367;SDS011;39271;45.618;20.024;2022-11-12T20:47:44;6.38;;;4.50;;
53367;SDS011;39271;45.618;20.024;2022-11-12T20:50:10;11.43;;;5.03;;
53367;SDS011;39271;45.618;20.024;2022-11-12T20:52:37;9.43;;;4.57;;
53367;SDS011;39271;45.618;20.024;2022-11-12T20:55:03;7.65;;;5.88;;
53367;SDS011;39271;45.618;20.024;2022-11-12T20:59:55;8.02;;;3.80;;
53367;SDS011;39271;45.618;20.024;2022-11-12T21:02:21;3.97;;;2.67;;
53367;SDS011;39271;45.618;20.024;2022-11-12T21:04:47;9.50;;;4.97;;
53367;SDS011;39271;45.618;20.024;2022-11-12T21:07:13;14.07;;;4.28;;
53367;SDS011;39271;45.618;20.024;2022-11-12T21:09:39;12.15;;;5.55;;
53367;SDS011;39271;45.618;20.024;2022-11-12T21:12:06;9.93;;;4.22;;
53367;SDS011;39271;45.618;20.024;2022-11-12T21:14:32;7.78;;;3.47;;
53367;SDS011;39271;45.618;20.024;2022-11-12T21:16:58;7.70;;;3.25;;
53367;SDS011;39271;45.618;20.024;2022-11-12T21:19:24;9.88;;;4.07;;
53367;SDS011;39271;45.618;20.024;2022-11-12T21:21:50;7.03;;;2.53;;
53367;SDS011;39271;45.618;20.024;2022-11-12T21:24:16;12.13;;;4.85;;
53367;SDS011;39271;45.618;20.024;2022-11-12T21:26:42;6.78;;;3.35;;
53367;SDS011;39271;45.618;20.024;2022-11-12T21:29:08;6.18;;;2.95;;
53367;SDS011;39271;45.618;20.024;2022-11-12T21:31:34;8.77;;;4.40;;
53367;SDS011;39271;45.618;20.024;2022-11-12T21:34:01;4.75;;;2.13;;
53367;SDS011;39271;45.618;20.024;2022-11-12T21:36:29;5.30;;;2.35;;
53367;SDS011;39271;45.618;20.024;2022-11-12T21:38:56;4.63;;;3.10;;
53367;SDS011;39271;45.618;20.024;2022-11-12T21:43:48;4.88;;;3.47;;
53367;SDS011;39271;45.618;20.024;2022-11-12T21:51:45;8.02;;;3.10;;
53367;SDS011;39271;45.618;20.024;2022-11-12T21:54:11;7.90;;;4.43;;
53367;SDS011;39271;45.618;20.024;2022-11-12T21:56:39;7.10;;;4.10;;
53367;SDS011;39271;45.618;20.024;2022-11-12T21:59:06;4.18;;;2.38;;
53367;SDS011;39271;45.618;20.024;2022-11-12T22:01:32;5.68;;;2.78;;
53367;SDS011;39271;45.618;20.024;2022-11-12T22:03:59;4.05;;;2.90;;
53367;SDS011;39271;45.618;20.024;2022-11-12T22:06:26;7.30;;;4.28;;
53367;SDS011;39271;45.618;20.024;2022-11-12T22:08:53;7.28;;;3.08;;
53367;SDS011;39271;45.618;20.024;2022-11-12T22:11:19;7.78;;;3.67;;
53367;SDS011;39271;45.618;20.024;2022-11-12T22:13:48;5.20;;;2.83;;
53367;SDS011;39271;45.618;20.024;2022-11-12T22:16:15;14.13;;;4.22;;
53367;SDS011;39271;45.618;20.024;2022-11-12T22:18:42;7.53;;;4.80;;
53367;SDS011;39271;45.618;20.024;2022-11-12T22:21:18;14.75;;;4.45;;
53367;SDS011;39271;45.618;20.024;2022-11-12T22:23:44;4.72;;;3.97;;
53367;SDS011;39271;45.618;20.024;2022-11-12T22:26:15;3.78;;;2.58;;
53367;SDS011;39271;45.618;20.024;2022-11-12T22:28:41;5.70;;;2.63;;
53367;SDS011;39271;45.618;20.024;2022-11-12T22:33:33;8.88;;;3.22;;
53367;SDS011;39271;45.618;20.024;2022-11-12T22:38:25;4.70;;;2.08;;
53367;SDS011;39271;45.618;20.024;2022-11-12T22:40:51;3.78;;;2.55;;
53367;SDS011;39271;45.618;20.024;2022-11-12T22:43:17;6.07;;;3.28;;
53367;SDS011;39271;45.618;20.024;2022-11-12T22:45:43;6.95;;;2.35;;
53367;SDS011;39271;45.618;20.024;2022-11-12T22:48:09;4.32;;;2.38;;
53367;SDS011;39271;45.618;20.024;2022-11-12T22:50:35;3.88;;;2.55;;
53367;SDS011;39271;45.618;20.024;2022-11-12T22:53:02;4.97;;;2.85;;
53367;SDS011;39271;45.618;20.024;2022-11-12T22:55:28;2.60;;;1.88;;
53367;SDS011;39271;45.618;20.024;2022-11-12T22:57:54;10.68;;;3.78;;
53367;SDS011;39271;45.618;20.024;2022-11-12T23:00:27;2.97;;;2.15;;
53367;SDS011;39271;45.618;20.024;2022-11-12T23:02:53;3.72;;;2.03;;
53367;SDS011;39271;45.618;20.024;2022-11-12T23:07:45;7.60;;;3.33;;
53367;SDS011;39271;45.618;20.024;2022-11-12T23:10:11;2.58;;;2.15;;
53367;SDS011;39271;45.618;20.024;2022-11-12T23:12:37;4.07;;;2.55;;
53367;SDS011;39271;45.618;20.024;2022-11-12T23:15:03;4.70;;;2.70;;
53367;SDS011;39271;45.618;20.024;2022-11-12T23:19:55;4.75;;;2.25;;
53367;SDS011;39271;45.618;20.024;2022-11-12T23:22:22;7.72;;;4.05;;
53367;SDS011;39271;45.618;20.024;2022-11-12T23:24:48;6.40;;;2.85;;
53367;SDS011;39271;45.618;20.024;2022-11-12T23:27:14;7.47;;;3.50;;
53367;SDS011;39271;45.618;20.024;2022-11-12T23:29:40;12.18;;;5.45;;
53367;SDS011;39271;45.618;20.024;2022-11-12T23:32:06;3.78;;;2.80;;
53367;SDS011;39271;45.618;20.024;2022-11-12T23:34:32;14.20;;;3.40;;
53367;SDS011;39271;45.618;20.024;2022-11-12T23:36:58;9.45;;;2.60;;
53367;SDS011;39271;45.618;20.024;2022-11-12T23:39:24;6.03;;;3.58;;
53367;SDS011;39271;45.618;20.024;2022-11-12T23:41:50;8.43;;;3.28;;
53367;SDS011;39271;45.618;20.024;2022-11-12T23:44:16;3.13;;;2.10;;
53367;SDS011;39271;45.618;20.024;2022-11-12T23:46:43;5.85;;;3.28;;
53367;SDS011;39271;45.618;20.024;2022-11-12T23:49:09;10.00;;;3.58;;
53367;SDS011;39271;45.618;20.024;2022-11-12T23:51:35;4.15;;;2.13;;
53367;SDS011;39271;45.618;20.024;2022-11-12T23:54:01;5.15;;;3.10;;
53367;SDS011;39271;45.618;20.024;2022-11-12T23:56:27;8.07;;;2.92;;
53367;SDS011;39271;45.618;20.024;2022-11-12T23:58:53;2.60;;;2.00;;
